Sven — DGGW — position and weather

sailwx.info

Track history (hours):
 
Tides and Currents Weather Stations Pressure Air Temp Water Temp Dewpoint Dewpoint Depression Visibility Wind Speed Wind Dir Waves Ship Positions

Sven

Last reported at 2017-Dec-16 09:53 UTC. Time now 2017-Dec-16 13:13 UTC.
Position N 37°33' W 000°59'.

Length 121 m; draft 6.8 m.

Type: Ship (hazmat cat A). MMSI: 211237900.

Date/timePositionNaut miles runAvg speedWind from/ knotsBaromVisibWave heightAir tempDewpointWater temp
2017-Dec-16 09:53N 37°33' W 000°59'410.7
2017-Dec-16 09:31N 37°32' W 000°54'611.4
2017-Dec-16 09:01N 37°33' W 000°47'510.5
2017-Dec-16 08:30N 37°33' W 000°40'510.1
2017-Dec-16 08:00N 37°34' W 000°34'510.7
2017-Dec-16 07:31N 37°39' W 000°31'510.9
2017-Dec-16 07:01N 37°43' W 000°27'710.9
2017-Dec-16 06:23N 37°49' W 000°22'511.0
2017-Dec-16 05:57N 37°53' W 000°19'511.2
2017-Dec-16 05:30N 37°57' W 000°15'611.1
2017-Dec-16 05:00N 38°02' W 000°12'19 0.5
2017-Dec-14 13:59N 37°45' W 000°23'815.8
2017-Dec-14 13:30N 37°39' W 000°27'815.5
2017-Dec-14 13:00N 37°32' W 000°33'815.4
2017-Dec-14 12:28N 37°27' W 000°41'715.6
2017-Dec-14 12:00N 37°22' W 000°48'1015.5
2017-Dec-14 11:23N 37°16' W 000°58'615.2
2017-Dec-14 10:58N 37°12' W 001°03'47 1.3
2017-Dec-12 23:31N 36°42' W 001°49'113.1
2017-Dec-12 23:28N 36°43' W 001°48'712.6
2017-Dec-12 22:56N 36°47' W 001°41'4012.8
2017-Dec-12 19:49N 37°13' W 001°04'413.2
2017-Dec-12 19:30N 37°16' W 001°00'713.1
2017-Dec-12 19:00N 37°20' W 000°54'613.0
2017-Dec-12 18:30N 37°24' W 000°48'612.7
2017-Dec-12 18:00N 37°29' W 000°42'612.5
2017-Dec-12 17:30N 37°33' W 000°36'612.4
2017-Dec-12 17:00N 37°38' W 000°31'612.7
2017-Dec-12 16:30N 37°43' W 000°27'612.6
2017-Dec-12 16:00N 37°49' W 000°24'712.6
2017-Dec-12 15:28N 37°55' W 000°19'612.7
2017-Dec-12 15:00N 37°60' W 000°15'16 0.4
2017-Dec-10 17:33N 37°44' W 000°22'011.8
2017-Dec-10 17:30N 37°44' W 000°22'611.9
2017-Dec-10 16:59N 37°39' W 000°27'612.0
2017-Dec-10 16:30N 37°34' W 000°31'810.9
2017-Dec-10 15:46N 37°32' W 000°40'312.1
2017-Dec-10 15:30N 37°32' W 000°44'9 0.6
2017-Dec-10 00:27N 37°32' W 000°55'613.3
2017-Dec-10 00:00N 37°33' W 000°48'713.5
2017-Dec-09 23:30N 37°33' W 000°39'612.4
2017-Dec-09 23:00N 37°37' W 000°32'713.8
2017-Dec-09 22:30N 37°42' W 000°28'1413.8
2017-Dec-09 21:32N 37°53' W 000°18'014.1
2017-Dec-09 21:30N 37°54' W 000°18'713.8
2017-Dec-09 21:00N 37°60' W 000°13'18 0.5
2017-Dec-08 09:38N 37°43' W 000°22'815.1
2017-Dec-08 09:05N 37°36' W 000°28'315.0
2017-Dec-08 08:54N 37°34' W 000°31'1114.8
2017-Dec-08 08:09N 37°26' W 000°41'214.8
2017-Dec-08 08:00N 37°25' W 000°43'914.7
2017-Dec-08 07:25N 37°19' W 000°51'814.8
2017-Dec-08 06:53N 37°14' W 000°59'514.6
2017-Dec-08 06:30N 37°10' W 001°04'  
Track history (hours):
 
Tides and Currents Weather Stations Pressure Air Temp Water Temp Dewpoint Dewpoint Depression Visibility Wind Speed Wind Dir Waves Ship Positions

Sven

Last reported at 2017-Dec-16 09:53 UTC. Time now 2017-Dec-16 13:13 UTC.
Position N 37°33' W 000°59'.

Length 121 m; draft 6.8 m.

Type: Ship (hazmat cat A). MMSI: 211237900.

Date/timePositionNaut miles runAvg speedWind from/ knotsBaromVisibWave heightAir tempDewpointWater temp
2017-Dec-16 09:53N 37°33' W 000°59'410.7
2017-Dec-16 09:31N 37°32' W 000°54'611.4
2017-Dec-16 09:01N 37°33' W 000°47'510.5
2017-Dec-16 08:30N 37°33' W 000°40'510.1
2017-Dec-16 08:00N 37°34' W 000°34'510.7
2017-Dec-16 07:31N 37°39' W 000°31'510.9
2017-Dec-16 07:01N 37°43' W 000°27'710.9
2017-Dec-16 06:23N 37°49' W 000°22'511.0
2017-Dec-16 05:57N 37°53' W 000°19'511.2
2017-Dec-16 05:30N 37°57' W 000°15'611.1
2017-Dec-16 05:00N 38°02' W 000°12'19 0.5
2017-Dec-14 13:59N 37°45' W 000°23'815.8
2017-Dec-14 13:30N 37°39' W 000°27'815.5
2017-Dec-14 13:00N 37°32' W 000°33'815.4
2017-Dec-14 12:28N 37°27' W 000°41'715.6
2017-Dec-14 12:00N 37°22' W 000°48'1015.5
2017-Dec-14 11:23N 37°16' W 000°58'615.2
2017-Dec-14 10:58N 37°12' W 001°03'47 1.3
2017-Dec-12 23:31N 36°42' W 001°49'113.1
2017-Dec-12 23:28N 36°43' W 001°48'712.6
2017-Dec-12 22:56N 36°47' W 001°41'4012.8
2017-Dec-12 19:49N 37°13' W 001°04'413.2
2017-Dec-12 19:30N 37°16' W 001°00'713.1
2017-Dec-12 19:00N 37°20' W 000°54'613.0
2017-Dec-12 18:30N 37°24' W 000°48'612.7
2017-Dec-12 18:00N 37°29' W 000°42'612.5
2017-Dec-12 17:30N 37°33' W 000°36'612.4
2017-Dec-12 17:00N 37°38' W 000°31'612.7
2017-Dec-12 16:30N 37°43' W 000°27'612.6
2017-Dec-12 16:00N 37°49' W 000°24'712.6
2017-Dec-12 15:28N 37°55' W 000°19'612.7
2017-Dec-12 15:00N 37°60' W 000°15'16 0.4
2017-Dec-10 17:33N 37°44' W 000°22'011.8
2017-Dec-10 17:30N 37°44' W 000°22'611.9
2017-Dec-10 16:59N 37°39' W 000°27'612.0
2017-Dec-10 16:30N 37°34' W 000°31'810.9
2017-Dec-10 15:46N 37°32' W 000°40'312.1
2017-Dec-10 15:30N 37°32' W 000°44'9 0.6
2017-Dec-10 00:27N 37°32' W 000°55'613.3
2017-Dec-10 00:00N 37°33' W 000°48'713.5
2017-Dec-09 23:30N 37°33' W 000°39'612.4
2017-Dec-09 23:00N 37°37' W 000°32'713.8
2017-Dec-09 22:30N 37°42' W 000°28'1413.8
2017-Dec-09 21:32N 37°53' W 000°18'014.1
2017-Dec-09 21:30N 37°54' W 000°18'713.8
2017-Dec-09 21:00N 37°60' W 000°13'18 0.5
2017-Dec-08 09:38N 37°43' W 000°22'815.1
2017-Dec-08 09:05N 37°36' W 000°28'315.0
2017-Dec-08 08:54N 37°34' W 000°31'1114.8
2017-Dec-08 08:09N 37°26' W 000°41'214.8
2017-Dec-08 08:00N 37°25' W 000°43'914.7
2017-Dec-08 07:25N 37°19' W 000°51'814.8
2017-Dec-08 06:53N 37°14' W 000°59'514.6
2017-Dec-08 06:30N 37°10' W 001°04'  

Dump ship's entire track history